createdAt,value
2018-06-19T00:01:52.450Z,92100.38
2018-06-19T00:04:20.404Z,92104.30
2018-06-19T00:06:48.496Z,92098.33
2018-06-19T00:09:16.477Z,92098.16
2018-06-19T00:11:44.446Z,92100.71
2018-06-19T00:14:12.429Z,92102.13
2018-06-19T00:16:40.488Z,92106.41
2018-06-19T00:19:08.838Z,92104.70
2018-06-19T00:21:40.806Z,92105.75
2018-06-19T00:24:08.782Z,92097.99
2018-06-19T00:26:36.777Z,92106.78
2018-06-19T00:29:04.846Z,92104.70
2018-06-19T00:31:32.852Z,92106.52
2018-06-19T00:34:00.807Z,92110.97
2018-06-19T00:36:28.916Z,92102.45
2018-06-19T00:38:56.868Z,92107.06
2018-06-19T00:41:24.888Z,92108.47
2018-06-19T00:43:53.350Z,92106.09
2018-06-19T00:46:23.655Z,92104.64
2018-06-19T00:48:51.636Z,92107.17
2018-06-19T00:51:19.634Z,92111.02
2018-06-19T00:53:47.594Z,92108.36
2018-06-19T00:56:26.793Z,92110.73
2018-06-19T00:58:54.732Z,92107.50
2018-06-19T01:01:22.685Z,92111.42
2018-06-19T01:03:50.732Z,92118.97
2018-06-19T01:06:18.680Z,92116.16
2018-06-19T01:08:46.689Z,92118.50
2018-06-19T01:11:14.667Z,92118.28
2018-06-19T01:13:42.652Z,92115.08
2018-06-19T01:16:10.628Z,92116.01
2018-06-19T01:18:38.606Z,92118.44
2018-06-19T01:21:06.623Z,92116.45
2018-06-19T01:23:34.550Z,92119.56
2018-06-19T01:26:02.602Z,92114.79
2018-06-19T01:28:30.594Z,92110.38
2018-06-19T01:30:58.521Z,92113.95
2018-06-19T01:33:31.527Z,92109.50
2018-06-19T01:35:59.464Z,92115.74
2018-06-19T01:38:27.394Z,92115.69
2018-06-19T01:40:55.366Z,92119.27
2018-06-19T01:43:23.296Z,92117.73
2018-06-19T01:45:51.229Z,92117.55
2018-06-19T01:48:19.243Z,92121.39
2018-06-19T01:50:47.183Z,92123.45
2018-06-19T01:53:15.171Z,92130.06
2018-06-19T01:55:43.157Z,92126.69
2018-06-19T01:58:11.106Z,92123.98
2018-06-19T02:00:39.050Z,92123.64
2018-06-19T02:03:07.038Z,92119.75
2018-06-19T02:05:35.068Z,92128.81
2018-06-19T02:08:03.048Z,92127.23
2018-06-19T02:10:37.622Z,92126.14
2018-06-19T02:13:05.582Z,92131.77
2018-06-19T02:15:33.547Z,92129.13
2018-06-19T02:18:01.659Z,92133.25
2018-06-19T02:20:29.687Z,92132.38
2018-06-19T02:22:57.639Z,92143.87
2018-06-19T02:26:50.101Z,92138.42
2018-06-19T02:29:18.067Z,92142.54
2018-06-19T02:31:46.035Z,92145.25
2018-06-19T02:34:14.040Z,92152.55
2018-06-19T02:36:41.987Z,92145.35
2018-06-19T02:39:11.382Z,92150.90
2018-06-19T02:41:39.546Z,92145.89
2018-06-19T02:44:07.633Z,92150.25
2018-06-19T02:46:35.613Z,92149.08
2018-06-19T02:49:04.047Z,92155.44
2018-06-19T02:51:32.002Z,92155.84
2018-06-19T02:54:00.157Z,92155.91
2018-06-19T02:56:28.162Z,92159.73
2018-06-19T02:58:56.167Z,92162.80
2018-06-19T03:01:24.092Z,92163.14
2018-06-19T03:03:52.156Z,92164.93
2018-06-19T03:06:20.112Z,92163.50
2018-06-19T03:08:48.124Z,92169.86
2018-06-19T03:11:16.222Z,92159.02
2018-06-19T03:13:44.164Z,92159.55
2018-06-19T03:16:12.139Z,92165.92
2018-06-19T03:18:40.137Z,92167.68
2018-06-19T03:21:08.087Z,92173.75
2018-06-19T03:23:36.032Z,92179.88
2018-06-19T03:26:04.067Z,92175.52
2018-06-19T03:28:32.020Z,92173.87
2018-06-19T03:30:59.995Z,92178.25
2018-06-19T03:33:28.018Z,92171.41
2018-06-19T03:35:55.983Z,92177.88
2018-06-19T03:38:23.907Z,92183.48
2018-06-19T03:40:52.167Z,92180.41
2018-06-19T03:43:20.062Z,92182.36
2018-06-19T03:45:47.984Z,92182.29
2018-06-19T04:02:56.963Z,92181.77
2018-06-19T04:05:24.889Z,92184.58
2018-06-19T04:07:52.797Z,92191.87
2018-06-19T04:10:20.793Z,92190.84
2018-06-19T04:12:48.766Z,92193.08
2018-06-19T04:15:16.813Z,92189.16
2018-06-19T04:17:44.784Z,92195.23
2018-06-19T04:20:13.204Z,92198.48
2018-06-19T04:22:41.120Z,92191.67
2018-06-19T04:25:09.119Z,92183.91
2018-06-19T04:27:37.028Z,92195.02
2018-06-19T04:30:05.194Z,92195.48
2018-06-19T04:32:33.414Z,92201.38
2018-06-19T04:35:01.344Z,92198.84
2018-06-19T04:37:29.256Z,92203.58
2018-06-19T04:39:57.235Z,92193.44
2018-06-19T04:42:25.857Z,92199.07
2018-06-19T04:44:53.880Z,92194.81
2018-06-19T04:47:21.880Z,92200.80
2018-06-19T04:49:49.853Z,92207.34
2018-06-19T04:52:17.746Z,92209.72
2018-06-19T04:54:45.708Z,92209.33
2018-06-19T04:57:13.636Z,92212.05
2018-06-19T04:59:41.569Z,92212.16
2018-06-19T05:02:09.519Z,92210.48
2018-06-19T05:04:37.421Z,92217.56
2018-06-19T05:07:05.400Z,92216.38
2018-06-19T05:09:33.416Z,92219.16
2018-06-19T05:12:01.344Z,92221.92
2018-06-19T05:14:37.609Z,92227.78
2018-06-19T05:17:05.611Z,92226.75
2018-06-19T05:19:33.522Z,92230.39
2018-06-19T05:22:01.495Z,92236.47
2018-06-19T05:24:29.410Z,92240.63
2018-06-19T05:26:57.326Z,92235.32
2018-06-19T05:29:25.436Z,92242.33
2018-06-19T05:31:53.357Z,92243.58
2018-06-19T05:34:21.634Z,92238.91
2018-06-19T05:36:49.628Z,92245.05
2018-06-19T05:39:17.549Z,92251.44
2018-06-19T05:41:45.477Z,92248.55
2018-06-19T05:44:13.438Z,92247.23
2018-06-19T05:46:41.355Z,92251.02
2018-06-19T05:49:09.298Z,92252.95
2018-06-19T05:51:37.300Z,92254.06
2018-06-19T05:54:05.231Z,92254.23
2018-06-19T05:56:33.341Z,92262.89
2018-06-19T05:59:01.292Z,92256.86
2018-06-19T06:01:29.207Z,92260.93
2018-06-19T06:03:57.106Z,92262.45
2018-06-19T06:06:25.055Z,92270.31
2018-06-19T06:08:52.999Z,92272.45
2018-06-19T06:11:20.911Z,92269.52
2018-06-19T06:13:48.926Z,92271.05
2018-06-19T06:16:16.932Z,92271.25
2018-06-19T06:18:44.857Z,92271.56
2018-06-19T06:21:12.826Z,92268.67
2018-06-19T06:23:40.839Z,92276.48
2018-06-19T06:26:08.763Z,92272.69
2018-06-19T06:28:36.740Z,92271.87
2018-06-19T06:31:04.987Z,92271.98
2018-06-19T06:33:32.895Z,92275.73
2018-06-19T06:36:00.991Z,92283.08
2018-06-19T06:38:28.916Z,92282.07
2018-06-19T06:40:56.852Z,92281.66
2018-06-19T06:43:24.811Z,92278.95
2018-06-19T06:45:52.737Z,92283.02
2018-06-19T06:48:20.660Z,92283.41
2018-06-19T06:50:48.621Z,92278.61
2018-06-19T06:53:16.550Z,92284.72
2018-06-19T06:55:44.599Z,92275.50
2018-06-19T06:58:12.867Z,92278.52
2018-06-19T07:00:40.796Z,92281.14
2018-06-19T07:03:08.735Z,92281.65
2018-06-19T07:05:36.770Z,92279.25
2018-06-19T07:08:04.690Z,92277.48
2018-06-19T07:10:32.617Z,92285.59
2018-06-19T07:13:00.584Z,92291.16
2018-06-19T07:15:28.510Z,92282.89
2018-06-19T07:17:56.631Z,92280.19
2018-06-19T07:20:28.099Z,92275.84
2018-06-19T07:22:56.044Z,92283.75
2018-06-19T07:25:23.975Z,92284.00
2018-06-19T07:27:51.993Z,92287.35
2018-06-19T07:30:19.925Z,92278.93
2018-06-19T07:32:47.874Z,92280.73
2018-06-19T07:35:15.831Z,92277.12
2018-06-19T07:37:43.795Z,92271.41
2018-06-19T07:40:11.739Z,92274.22
2018-06-19T07:42:39.780Z,92271.31
2018-06-19T07:45:07.721Z,92263.61
2018-06-19T07:47:35.704Z,92263.98
2018-06-19T07:50:03.996Z,92263.70
2018-06-19T07:52:32.127Z,92268.34
2018-06-19T07:55:00.064Z,92266.13
2018-06-19T07:57:28.021Z,92257.72
2018-06-19T07:59:55.946Z,92262.45
2018-06-19T08:02:23.886Z,92257.44
2018-06-19T08:04:51.902Z,92264.87
2018-06-19T08:07:19.826Z,92260.83
2018-06-19T08:09:47.757Z,92266.81
2018-06-19T08:12:15.765Z,92261.03
2018-06-19T08:14:43.686Z,92258.75
2018-06-19T08:17:11.626Z,92259.68
2018-06-19T08:19:39.674Z,92256.42
2018-06-19T08:22:07.596Z,92255.18
2018-06-19T08:24:35.525Z,92257.44
2018-06-19T08:27:03.552Z,92254.51
2018-06-19T08:29:31.471Z,92253.32
2018-06-19T08:31:59.375Z,92253.98
2018-06-19T08:34:27.323Z,92253.35
2018-06-19T08:36:55.276Z,92247.29
2018-06-19T08:39:23.195Z,92250.31
2018-06-19T08:41:51.170Z,92252.00
2018-06-19T08:44:19.099Z,92258.53
2018-06-19T08:46:47.049Z,92257.59
2018-06-19T08:49:15.053Z,92254.18
2018-06-19T08:51:43.103Z,92257.63
2018-06-19T08:54:11.017Z,92253.66
2018-06-19T08:56:38.959Z,92251.38
2018-06-19T08:59:06.884Z,92250.53
2018-06-19T09:01:34.805Z,92251.23
2018-06-19T09:04:03.199Z,92251.51
2018-06-19T09:06:31.216Z,92251.66
2018-06-19T09:08:59.127Z,92256.29
2018-06-19T09:11:27.128Z,92248.14
2018-06-19T09:13:55.052Z,92254.53
2018-06-19T09:16:22.967Z,92255.06
2018-06-19T09:18:50.927Z,92256.95
2018-06-19T09:21:19.032Z,92258.08
2018-06-19T09:23:48.604Z,92250.77
2018-06-19T09:26:16.582Z,92248.86
2018-06-19T09:28:44.507Z,92263.09
2018-06-19T09:31:12.444Z,92259.44
2018-06-19T09:33:40.516Z,92260.25
2018-06-19T09:36:08.470Z,92246.81
2018-06-19T09:38:36.400Z,92251.28
2018-06-19T09:41:04.452Z,92250.89
2018-06-19T09:43:32.567Z,92246.89
2018-06-19T09:46:00.656Z,92250.77
2018-06-19T09:48:28.724Z,92252.84
2018-06-19T09:50:56.684Z,92252.28
2018-06-19T09:53:24.611Z,92250.36
2018-06-19T09:55:53.003Z,92246.86
2018-06-19T09:58:21.204Z,92251.16
2018-06-19T10:00:49.331Z,92252.09
2018-06-19T10:03:17.546Z,92249.80
2018-06-19T10:07:09.976Z,92261.20
2018-06-19T10:09:37.965Z,92259.05
2018-06-19T10:12:06.065Z,92264.11
2018-06-19T10:14:34.474Z,92250.41
2018-06-19T10:17:02.538Z,92251.06
2018-06-19T10:19:30.485Z,92244.46
2018-06-19T10:21:58.554Z,92249.55
2018-06-19T10:24:27.591Z,92247.24
2018-06-19T10:26:55.665Z,92241.02
2018-06-19T10:29:23.606Z,92245.39
2018-06-19T10:31:51.604Z,92237.33
2018-06-19T10:34:19.529Z,92229.27
2018-06-19T10:36:47.485Z,92238.12
2018-06-19T10:39:15.520Z,92236.59
2018-06-19T10:41:43.584Z,92233.87
2018-06-19T10:44:11.547Z,92230.98
2018-06-19T10:46:39.521Z,92235.64
2018-06-19T10:49:07.434Z,92235.33
2018-06-19T10:51:35.373Z,92228.28
2018-06-19T10:54:03.423Z,92223.33
2018-06-19T10:56:31.416Z,92222.83
2018-06-19T10:58:59.391Z,92216.77
2018-06-19T11:01:27.473Z,92214.41
2018-06-19T11:03:55.390Z,92205.77
2018-06-19T11:06:23.326Z,92202.09
2018-06-19T11:08:51.479Z,92205.56
2018-06-19T11:11:19.452Z,92203.28
2018-06-19T11:13:47.377Z,92197.50
2018-06-19T11:16:15.378Z,92198.69
2018-06-19T11:18:43.355Z,92193.63
2018-06-19T11:21:11.280Z,92192.36
2018-06-19T11:23:40.156Z,92190.66
2018-06-19T11:26:08.131Z,92187.14
2018-06-19T11:28:36.088Z,92190.97
2018-06-19T11:31:04.108Z,92180.30
2018-06-19T11:33:32.023Z,92176.62
2018-06-19T11:36:00.092Z,92175.94
2018-06-19T11:38:28.105Z,92175.64
2018-06-19T11:40:56.092Z,92172.42
2018-06-19T11:43:24.064Z,92180.98
2018-06-19T11:45:52.124Z,92172.36
2018-06-19T11:48:20.084Z,92172.77
2018-06-19T11:50:48.040Z,92172.19
2018-06-19T11:53:16.016Z,92158.72
2018-06-19T11:55:43.936Z,92159.41
2018-06-19T11:58:11.855Z,92167.91
2018-06-19T12:00:39.825Z,92167.78
2018-06-19T12:03:07.811Z,92160.28
2018-06-19T12:05:37.223Z,92161.13
2018-06-19T12:08:05.621Z,92162.45
2018-06-19T12:10:33.555Z,92162.31
2018-06-19T12:13:01.480Z,92156.48
2018-06-19T12:15:34.528Z,92149.78
2018-06-19T12:18:02.507Z,92154.06
2018-06-19T12:20:30.474Z,92169.58
2018-06-19T12:22:58.534Z,92166.37
2018-06-19T12:25:26.622Z,92165.61
2018-06-19T12:27:54.563Z,92167.11
2018-06-19T12:30:22.556Z,92155.31
2018-06-19T12:32:50.495Z,92156.62
2018-06-19T12:35:18.426Z,92153.75
2018-06-19T12:37:46.400Z,92143.38
2018-06-19T12:40:14.351Z,92142.09
2018-06-19T12:42:42.289Z,92131.84
2018-06-19T12:45:10.251Z,92143.48
2018-06-19T12:47:37.786Z,92146.80
2018-06-19T12:50:46.807Z,92142.48
2018-06-19T12:53:25.739Z,92150.23
2018-06-19T12:56:04.770Z,92146.64
2018-06-19T12:58:32.696Z,92141.64
2018-06-19T13:01:00.630Z,92145.47
2018-06-19T13:03:39.578Z,92151.02
2018-06-19T13:06:18.580Z,92149.28
2018-06-19T13:08:46.587Z,92152.42
2018-06-19T13:11:14.576Z,92157.36
2018-06-19T13:13:53.481Z,92161.88
2018-06-19T13:16:32.284Z,92170.80
2018-06-19T13:19:11.184Z,92174.23
2018-06-19T13:21:39.106Z,92181.52
2018-06-19T13:24:07.014Z,92182.17
2018-06-19T13:26:35.167Z,92187.92
2018-06-19T13:29:42.463Z,92191.80
2018-06-19T13:32:11.515Z,92187.24
2018-06-19T13:34:39.591Z,92194.39
2018-06-19T13:37:07.548Z,92195.74
2018-06-19T13:39:37.987Z,92201.00
2018-06-19T13:42:18.803Z,92202.64
2018-06-19T13:45:04.972Z,92196.80
2018-06-19T13:47:33.764Z,92195.42
2018-06-19T13:50:01.698Z,92201.31
2018-06-19T13:52:29.828Z,92205.10
2018-06-19T13:56:12.665Z,92201.85
2018-06-19T13:58:40.660Z,92199.86
2018-06-19T14:01:09.005Z,92193.38
2018-06-19T14:03:37.186Z,92193.41
2018-06-19T14:06:05.257Z,92193.76
2018-06-19T14:09:16.964Z,92188.13
2018-06-19T14:12:01.562Z,92192.61
2018-06-19T14:14:29.488Z,92183.55
2018-06-19T14:16:57.428Z,92191.59
2018-06-19T14:19:25.430Z,92189.64
2018-06-19T14:21:53.355Z,92184.98
2018-06-19T14:24:21.289Z,92183.77
2018-06-19T14:26:49.367Z,92184.80
2018-06-19T14:29:17.442Z,92190.13
2018-06-19T14:31:45.373Z,92204.25
2018-06-19T14:34:13.343Z,92199.38
2018-06-19T14:36:41.291Z,92208.12
2018-06-19T14:39:09.346Z,92205.56
2018-06-19T14:41:37.245Z,92197.94
2018-06-19T14:44:05.240Z,92201.00
2018-06-19T14:46:33.280Z,92203.10
2018-06-19T14:49:02.292Z,92204.81
2018-06-19T14:51:30.210Z,92205.27
2018-06-19T14:53:58.129Z,92205.24
2018-06-19T14:56:26.116Z,92199.34
2018-06-19T14:58:54.164Z,92202.79
2018-06-19T15:01:22.092Z,92200.52
2018-06-19T15:03:50.075Z,92198.22
2018-06-19T15:06:17.999Z,92196.63
2018-06-19T15:08:45.918Z,92192.71
2018-06-19T15:11:13.918Z,92189.00
2018-06-19T15:13:41.831Z,92192.15
2018-06-19T15:16:09.758Z,92194.05
2018-06-19T15:18:37.706Z,92188.60
2018-06-19T15:21:05.627Z,92184.48
2018-06-19T15:23:33.558Z,92182.69
2018-06-19T15:26:01.514Z,92182.42
2018-06-19T15:28:29.578Z,92181.84
2018-06-19T15:30:57.491Z,92175.53
2018-06-19T15:33:25.548Z,92181.01
2018-06-19T15:35:53.466Z,92174.54
2018-06-19T15:38:21.712Z,92177.91
2018-06-19T15:40:49.697Z,92175.73
2018-06-19T15:43:17.677Z,92175.34
2018-06-19T15:45:45.604Z,92188.30
2018-06-19T15:48:13.701Z,92189.08
2018-06-19T15:50:41.659Z,92184.38
2018-06-19T15:53:09.620Z,92189.12
2018-06-19T15:55:37.731Z,92189.22
2018-06-19T15:58:05.835Z,92192.42
2018-06-19T16:00:33.979Z,92191.92
2018-06-19T16:03:01.952Z,92194.80
2018-06-19T16:05:30.199Z,92200.97
2018-06-19T16:08:29.043Z,92200.98
2018-06-19T16:10:57.216Z,92202.23
2018-06-19T16:13:25.577Z,92204.73
2018-06-19T16:15:53.733Z,92212.55
2018-06-19T16:18:21.723Z,92218.00
2018-06-19T16:20:49.703Z,92213.99
2018-06-19T16:23:17.777Z,92215.09
2018-06-19T16:25:45.711Z,92218.48
2018-06-19T16:28:14.090Z,92222.91
2018-06-19T16:30:42.318Z,92224.36
2018-06-19T16:33:10.292Z,92219.08
2018-06-19T16:35:38.229Z,92225.03
2018-06-19T16:38:06.844Z,92225.91
2018-06-19T16:40:35.803Z,92230.63
2018-06-19T16:43:03.901Z,92235.21
2018-06-19T16:45:31.921Z,92229.51
2018-06-19T16:47:59.857Z,92234.03
2018-06-19T16:50:28.161Z,92248.05
2018-06-19T16:52:56.421Z,92246.84
2018-06-19T16:55:25.325Z,92247.95
2018-06-19T16:57:54.154Z,92248.78
2018-06-19T17:00:22.191Z,92253.48
2018-06-19T17:02:50.111Z,92264.55
2018-06-19T17:05:18.136Z,92273.77
2018-06-19T17:07:46.192Z,92273.86
2018-06-19T17:10:14.527Z,92285.79
2018-06-19T17:12:44.442Z,92287.44
2018-06-19T17:15:12.645Z,92286.52
2018-06-19T17:17:40.656Z,92292.02
2018-06-19T17:20:09.053Z,92289.70
2018-06-19T17:22:37.536Z,92293.05
2018-06-19T17:25:05.846Z,92295.95
2018-06-19T17:27:33.862Z,92296.75
2018-06-19T17:30:02.128Z,92305.31
2018-06-19T17:32:30.127Z,92309.80
2018-06-19T17:34:58.343Z,92306.25
2018-06-19T17:37:26.450Z,92303.23
2018-06-19T17:39:54.599Z,92304.03
2018-06-19T17:42:22.618Z,92302.52
2018-06-19T17:44:50.713Z,92307.86
2018-06-19T17:47:18.734Z,92306.56
2018-06-19T17:49:46.916Z,92312.05
2018-06-19T17:52:15.119Z,92312.34
2018-06-19T17:54:43.196Z,92315.53
2018-06-19T17:57:11.144Z,92311.72
2018-06-19T17:59:39.403Z,92311.80
2018-06-19T18:02:08.405Z,92309.53
2018-06-19T18:04:36.417Z,92315.02
2018-06-19T18:07:04.768Z,92318.36
2018-06-19T18:09:32.897Z,92324.57
2018-06-19T18:12:01.103Z,92323.05
2018-06-19T18:14:29.435Z,92330.11
2018-06-19T18:16:58.057Z,92335.64
2018-06-19T18:19:26.851Z,92337.31
2018-06-19T18:21:55.559Z,92335.28
2018-06-19T18:24:23.672Z,92341.80
2018-06-19T18:26:51.720Z,92347.38
2018-06-19T18:29:19.879Z,92351.14
2018-06-19T18:31:48.165Z,92348.46
2018-06-19T18:34:16.506Z,92356.44
2018-06-19T18:36:44.527Z,92359.58
2018-06-19T18:39:12.900Z,92356.77
2018-06-19T18:41:41.220Z,92361.14
2018-06-19T18:44:09.804Z,92366.91
2018-06-19T18:46:37.939Z,92375.33
2018-06-19T18:49:05.842Z,92377.80
2018-06-19T18:51:33.871Z,92380.77
2018-06-19T18:54:01.844Z,92383.39
2018-06-19T18:56:29.752Z,92389.51
2018-06-19T18:58:57.840Z,92393.52
2018-06-19T19:01:26.218Z,92396.11
2018-06-19T19:03:54.218Z,92404.25
2018-06-19T19:06:22.222Z,92406.09
2018-06-19T19:08:50.171Z,92401.68
2018-06-19T19:11:18.129Z,92416.04
2018-06-19T19:13:46.688Z,92418.73
2018-06-19T19:18:29.677Z,92424.24
2018-06-19T19:20:59.021Z,92428.01
2018-06-19T19:23:28.114Z,92423.86
2018-06-19T19:25:56.396Z,92426.20
2018-06-19T19:28:30.191Z,92431.03
2018-06-19T19:30:58.551Z,92429.73
2018-06-19T19:33:26.760Z,92436.89
2018-06-19T19:35:55.300Z,92434.27
2018-06-19T19:39:32.790Z,92441.38
2018-06-19T19:42:01.062Z,92450.41
2018-06-19T19:44:29.609Z,92451.22
2018-06-19T19:47:03.138Z,92445.81
2018-06-19T19:49:31.222Z,92445.47
2018-06-19T19:51:59.592Z,92446.72
2018-06-19T19:54:28.071Z,92449.29
2018-06-19T19:57:01.510Z,92450.75
2018-06-19T19:59:35.753Z,92456.46
2018-06-19T20:02:09.678Z,92462.74
2018-06-19T20:04:43.945Z,92458.61
2018-06-19T20:07:18.170Z,92466.45
2018-06-19T20:09:52.219Z,92457.38
2018-06-19T20:12:26.786Z,92473.66
2018-06-19T20:15:00.874Z,92470.16
2018-06-19T20:17:35.734Z,92475.49
2018-06-19T20:20:10.865Z,92480.36
2018-06-19T20:22:45.094Z,92486.78
2018-06-19T20:25:19.624Z,92482.43
2018-06-19T20:27:53.998Z,92491.09
2018-06-19T20:30:27.995Z,92494.86
2018-06-19T20:33:01.955Z,92492.82
2018-06-19T20:35:36.078Z,92496.41
2018-06-19T20:38:10.259Z,92495.42
2018-06-19T20:40:46.165Z,92497.83
2018-06-19T20:43:20.304Z,92499.64
2018-06-19T20:45:54.275Z,92497.41
2018-06-19T20:48:28.228Z,92503.86
2018-06-19T20:51:02.392Z,92501.03
2018-06-19T20:53:36.296Z,92493.31
2018-06-19T20:56:10.428Z,92488.30
2018-06-19T20:58:44.840Z,92488.84
2018-06-19T21:01:18.948Z,92490.03
2018-06-19T21:03:53.772Z,92495.44
2018-06-19T21:06:27.863Z,92495.99
2018-06-19T21:09:02.021Z,92498.30
2018-06-19T21:11:36.184Z,92504.38
2018-06-19T21:14:10.225Z,92496.23
2018-06-19T21:16:44.330Z,92498.95
2018-06-19T21:19:18.236Z,92497.45
2018-06-19T21:21:52.216Z,92494.37
2018-06-19T21:24:26.251Z,92492.25
2018-06-19T21:27:00.435Z,92490.11
2018-06-19T21:29:34.482Z,92494.66
2018-06-19T21:32:08.645Z,92496.54
2018-06-19T21:34:42.661Z,92493.48
2018-06-19T21:37:16.693Z,92494.24
2018-06-19T21:39:50.932Z,92484.55
2018-06-19T21:42:24.917Z,92488.91
2018-06-19T21:44:58.810Z,92492.16
2018-06-19T21:47:32.919Z,92492.00
2018-06-19T21:50:06.839Z,92495.38
2018-06-19T21:52:40.883Z,92497.84
2018-06-19T21:55:14.833Z,92493.22
2018-06-19T21:57:48.856Z,92492.61
2018-06-19T22:00:22.879Z,92490.25
2018-06-19T22:02:57.012Z,92494.57
2018-06-19T22:05:31.051Z,92496.39
2018-06-19T22:08:05.116Z,92498.19
2018-06-19T22:10:39.232Z,92489.09
2018-06-19T22:13:13.392Z,92488.39
2018-06-19T22:15:47.419Z,92494.67
2018-06-19T22:18:21.266Z,92487.45
2018-06-19T22:20:55.351Z,92494.73
2018-06-19T22:23:29.363Z,92499.82
2018-06-19T22:26:03.373Z,92494.16
2018-06-19T22:28:37.422Z,92494.47
2018-06-19T22:31:11.504Z,92496.94
2018-06-19T22:33:45.481Z,92503.55
2018-06-19T22:36:19.613Z,92496.47
2018-06-19T22:38:53.713Z,92492.61
2018-06-19T22:41:27.841Z,92487.56
2018-06-19T22:44:01.849Z,92487.50
2018-06-19T22:46:36.663Z,92483.89
2018-06-19T22:49:10.739Z,92484.42
2018-06-19T22:51:44.698Z,92485.66
2018-06-19T22:54:18.918Z,92479.64
2018-06-19T22:56:58.160Z,92486.18
2018-06-19T22:59:32.232Z,92487.30
2018-06-19T23:02:06.188Z,92496.27
2018-06-19T23:04:40.246Z,92491.47
2018-06-19T23:07:14.206Z,92492.48
2018-06-19T23:09:48.180Z,92499.02
2018-06-19T23:12:22.131Z,92504.48
2018-06-19T23:14:56.256Z,92503.48
2018-06-19T23:17:30.356Z,92504.03
2018-06-19T23:20:04.504Z,92503.03
2018-06-19T23:22:38.592Z,92505.45
2018-06-19T23:25:12.652Z,92504.52
2018-06-19T23:27:46.727Z,92500.83
2018-06-19T23:30:20.883Z,92498.05
2018-06-19T23:32:54.955Z,92496.42
2018-06-19T23:35:29.024Z,92492.61
2018-06-19T23:38:03.038Z,92493.59
2018-06-19T23:40:37.042Z,92500.89
2018-06-19T23:43:11.120Z,92498.50
2018-06-19T23:45:45.146Z,92502.83
2018-06-19T23:48:19.278Z,92499.86
2018-06-19T23:50:53.303Z,92500.50
2018-06-19T23:53:27.270Z,92505.73
2018-06-19T23:56:01.261Z,92503.59
2018-06-19T23:58:35.224Z,92511.86
